createdAt,value
2016-11-30T00:00:20.520Z,1021.85
2016-11-30T00:01:35.761Z,1021.83
2016-11-30T00:02:49.579Z,1021.78
2016-11-30T00:04:03.958Z,1021.75
2016-11-30T00:05:18.558Z,1021.72
2016-11-30T00:06:32.834Z,1021.69
2016-11-30T00:07:47.392Z,1021.67
2016-11-30T00:09:01.157Z,1021.68
2016-11-30T00:10:15.427Z,1021.67
2016-11-30T00:11:30.090Z,1021.71
2016-11-30T00:12:44.738Z,1021.77
2016-11-30T00:13:59.138Z,1021.82
2016-11-30T00:15:13.005Z,1021.76
2016-11-30T00:16:27.385Z,1021.77
2016-11-30T00:17:41.713Z,1021.72
2016-11-30T00:18:55.635Z,1021.69
2016-11-30T00:20:09.926Z,1021.72
2016-11-30T00:21:24.200Z,1021.68
2016-11-30T00:22:38.218Z,1021.71
2016-11-30T00:23:52.403Z,1021.73
2016-11-30T00:25:06.435Z,1021.65
2016-11-30T00:26:20.695Z,1021.71
2016-11-30T00:27:35.088Z,1021.66
2016-11-30T00:28:48.920Z,1021.71
2016-11-30T00:30:03.052Z,1021.69
2016-11-30T00:31:17.449Z,1021.7
2016-11-30T00:32:32.079Z,1021.7
2016-11-30T00:33:46.048Z,1021.69
2016-11-30T00:35:00.051Z,1021.76
2016-11-30T00:36:14.759Z,1021.83
2016-11-30T00:37:28.661Z,1021.87
2016-11-30T00:38:43.273Z,1021.93
2016-11-30T00:39:57.395Z,1021.95
2016-11-30T00:41:11.300Z,1021.99
2016-11-30T00:42:25.394Z,1022.02
2016-11-30T00:43:39.841Z,1022.01
2016-11-30T00:44:53.987Z,1022.04
2016-11-30T00:46:08.028Z,1022
2016-11-30T00:47:24.284Z,1022.04
2016-11-30T00:48:38.296Z,1021.99
2016-11-30T00:49:52.895Z,1022.01
2016-11-30T00:51:07.484Z,1022.03
2016-11-30T00:52:21.781Z,1022.03
2016-11-30T00:53:35.925Z,1022.06
2016-11-30T00:54:49.785Z,1022.09
2016-11-30T00:56:04.504Z,1022.06
2016-11-30T00:57:19.431Z,1022.06
2016-11-30T00:58:33.631Z,1022.02
2016-11-30T00:59:47.381Z,1021.99
2016-11-30T01:01:01.503Z,1022.01
2016-11-30T01:02:15.583Z,1022.02
2016-11-30T01:03:30.407Z,1022.04
2016-11-30T01:04:44.183Z,1022.02
2016-11-30T01:05:58.451Z,1022.01
2016-11-30T01:07:12.537Z,1021.97
2016-11-30T01:08:26.852Z,1021.98
2016-11-30T01:09:41.810Z,1021.96
2016-11-30T01:10:56.306Z,1021.95
2016-11-30T01:12:10.153Z,1021.91
2016-11-30T01:13:24.015Z,1021.91
2016-11-30T01:16:07.676Z,1021.9
2016-11-30T01:17:21.483Z,1022.02
2016-11-30T01:18:35.240Z,1022.04
2016-11-30T01:19:50.079Z,1022.05
2016-11-30T01:21:03.936Z,1022.08
2016-11-30T01:22:18.533Z,1022.08
2016-11-30T01:23:33.032Z,1022.05
2016-11-30T01:24:46.862Z,1022.08
2016-11-30T01:26:00.854Z,1022.09
2016-11-30T01:27:14.871Z,1022.15
2016-11-30T01:28:58.631Z,1022.16
2016-11-30T01:30:13.233Z,1022.17
2016-11-30T01:33:25.323Z,1022.08
2016-11-30T01:34:39.324Z,1022.14
2016-11-30T01:35:54.362Z,1022.24
2016-11-30T01:37:08.232Z,1022.27
2016-11-30T01:38:22.490Z,1022.26
2016-11-30T01:39:36.257Z,1022.34
2016-11-30T01:40:50.588Z,1022.39
2016-11-30T01:42:04.395Z,1022.41
2016-11-30T01:43:19.060Z,1022.35
2016-11-30T01:44:32.840Z,1022.31
2016-11-30T01:45:47.010Z,1022.28
2016-11-30T01:47:01.313Z,1022.28
2016-11-30T01:48:16.326Z,1022.25
2016-11-30T01:49:30.388Z,1022.19
2016-11-30T01:50:44.659Z,1022.16
2016-11-30T01:51:58.405Z,1022.12
2016-11-30T01:53:12.480Z,1022.1
2016-11-30T01:54:26.570Z,1022.12
2016-11-30T01:55:41.134Z,1022.08
2016-11-30T01:56:55.636Z,1022.08
2016-11-30T01:58:09.585Z,1021.96
2016-11-30T01:59:23.609Z,1021.94
2016-11-30T02:00:37.722Z,1021.88
2016-11-30T02:03:21.309Z,1021.78
2016-11-30T02:04:35.731Z,1021.73
2016-11-30T02:05:52.379Z,1021.71
2016-11-30T02:07:06.561Z,1021.77
2016-11-30T02:08:20.753Z,1021.77
2016-11-30T02:09:35.052Z,1021.68
2016-11-30T02:10:49.320Z,1021.73
2016-11-30T02:12:03.414Z,1021.74
2016-11-30T02:13:17.301Z,1021.85
2016-11-30T02:14:31.220Z,1021.87
2016-11-30T02:15:45.587Z,1021.87
2016-11-30T02:16:59.882Z,1021.81
2016-11-30T02:18:13.915Z,1021.76
2016-11-30T02:19:27.931Z,1021.65
2016-11-30T02:20:41.966Z,1021.58
2016-11-30T02:21:56.452Z,1021.47
2016-11-30T02:23:10.733Z,1021.38
2016-11-30T02:24:25.104Z,1021.4
2016-11-30T02:25:39.136Z,1021.43
2016-11-30T02:26:53.523Z,1021.44
2016-11-30T02:28:07.675Z,1021.42
2016-11-30T02:29:36.854Z,1021.37
2016-11-30T02:30:50.697Z,1021.38
2016-11-30T02:32:04.717Z,1021.46
2016-11-30T02:33:18.710Z,1021.45
2016-11-30T02:34:33.108Z,1021.53
2016-11-30T02:35:47.418Z,1021.56
2016-11-30T02:37:01.528Z,1021.64
2016-11-30T02:38:15.619Z,1021.61
2016-11-30T02:39:29.626Z,1021.58
2016-11-30T02:40:44.157Z,1021.54
2016-11-30T02:41:58.769Z,1021.41
2016-11-30T02:43:13.281Z,1021.34
2016-11-30T02:44:27.227Z,1021.28
2016-11-30T02:45:41.364Z,1021.22
2016-11-30T02:46:55.880Z,1021.2
2016-11-30T02:48:10.282Z,1021.17
2016-11-30T02:49:24.337Z,1021.14
2016-11-30T02:50:38.452Z,1021.22
2016-11-30T02:51:52.725Z,1021.33
2016-11-30T02:53:07.209Z,1021.42
2016-11-30T02:54:21.548Z,1021.36
2016-11-30T02:55:35.547Z,1021.33
2016-11-30T02:56:49.647Z,1021.24
2016-11-30T02:58:03.618Z,1021.19
2016-11-30T02:59:18.125Z,1021.17
2016-11-30T03:00:32.127Z,1021.18
2016-11-30T03:04:43.768Z,1021.18
2016-11-30T03:06:13.721Z,1021.15
2016-11-30T03:07:27.584Z,1021.19
2016-11-30T03:08:41.639Z,1021.25
2016-11-30T03:09:55.901Z,1021.39
2016-11-30T03:11:09.716Z,1021.4
2016-11-30T03:12:24.213Z,1021.45
2016-11-30T03:13:38.719Z,1021.42
2016-11-30T03:14:53.122Z,1021.39
2016-11-30T03:16:07.479Z,1021.39
2016-11-30T03:17:21.712Z,1021.37
2016-11-30T03:18:36.518Z,1021.33
2016-11-30T03:19:50.538Z,1021.34
2016-11-30T03:21:04.699Z,1021.38
2016-11-30T03:22:33.610Z,1021.34
2016-11-30T03:23:47.831Z,1021.35
2016-11-30T03:25:04.955Z,1021.32
2016-11-30T03:26:18.915Z,1021.32
2016-11-30T03:27:33.079Z,1021.21
2016-11-30T03:30:31.476Z,1021.19
2016-11-30T03:31:45.704Z,1021.23
2016-11-30T03:33:14.594Z,1021.15
2016-11-30T03:34:28.395Z,1021.18
2016-11-30T03:35:43.059Z,1021.22
2016-11-30T03:36:57.074Z,1021.22
2016-11-30T03:38:11.230Z,1021.18
2016-11-30T03:39:25.339Z,1021.22
2016-11-30T03:40:39.315Z,1021.25
2016-11-30T03:41:53.817Z,1021.26
2016-11-30T03:43:07.557Z,1021.35
2016-11-30T03:44:22.027Z,1021.33
2016-11-30T03:45:35.983Z,1021.39
2016-11-30T03:46:50.926Z,1021.31
2016-11-30T03:48:05.165Z,1021.33
2016-11-30T03:49:19.032Z,1021.31
2016-11-30T03:50:33.541Z,1021.21
2016-11-30T03:51:47.603Z,1021.21
2016-11-30T03:53:01.777Z,1021.23
2016-11-30T03:54:16.261Z,1021.22
2016-11-30T03:55:30.283Z,1021.24
2016-11-30T03:56:44.892Z,1021.26
2016-11-30T03:57:59.001Z,1021.22
2016-11-30T03:59:13.155Z,1021.14
2016-11-30T04:00:27.278Z,1021.11
2016-11-30T04:01:41.254Z,1021.05
2016-11-30T04:02:55.566Z,1021.1
2016-11-30T04:04:09.413Z,1021.19
2016-11-30T04:05:23.334Z,1021.27
2016-11-30T04:06:37.471Z,1021.28
2016-11-30T04:07:51.546Z,1021.4
2016-11-30T04:09:05.960Z,1021.46
2016-11-30T04:10:21.087Z,1021.59
2016-11-30T04:11:40.823Z,1021.64
2016-11-30T04:13:03.017Z,1021.66
2016-11-30T04:14:28.132Z,1021.64
2016-11-30T04:15:51.872Z,1021.62
2016-11-30T04:17:11.982Z,1021.65
2016-11-30T04:18:33.008Z,1021.68
2016-11-30T04:19:55.882Z,1021.78
2016-11-30T04:21:17.515Z,1021.75
2016-11-30T04:22:39.474Z,1021.72
2016-11-30T04:23:57.037Z,1021.69
2016-11-30T04:25:11.175Z,1021.61
2016-11-30T04:26:25.497Z,1021.58
2016-11-30T04:27:39.404Z,1021.54
2016-11-30T04:29:08.429Z,1021.49
2016-11-30T04:30:22.575Z,1021.55
2016-11-30T04:31:36.523Z,1021.6
2016-11-30T04:32:50.267Z,1021.55
2016-11-30T04:34:04.367Z,1021.57
2016-11-30T04:35:18.416Z,1021.56
2016-11-30T04:36:32.335Z,1021.56
2016-11-30T04:37:46.792Z,1021.58
2016-11-30T04:39:00.626Z,1021.71
2016-11-30T04:40:14.828Z,1021.87
2016-11-30T04:41:28.732Z,1021.99
2016-11-30T04:42:43.060Z,1021.96
2016-11-30T04:44:00.025Z,1021.93
2016-11-30T04:45:13.879Z,1021.83
2016-11-30T04:46:28.289Z,1021.8
2016-11-30T04:47:42.605Z,1021.79
2016-11-30T04:48:56.565Z,1021.66
2016-11-30T04:50:11.191Z,1021.71
2016-11-30T04:51:25.377Z,1021.76
2016-11-30T04:52:39.654Z,1021.71
2016-11-30T04:53:53.912Z,1021.62
2016-11-30T04:55:08.210Z,1021.48
2016-11-30T04:56:22.362Z,1021.44
2016-11-30T04:57:36.730Z,1021.48
2016-11-30T04:58:51.191Z,1021.48
2016-11-30T05:00:05.258Z,1021.52
2016-11-30T05:01:19.524Z,1021.51
2016-11-30T05:02:33.793Z,1021.48
2016-11-30T05:03:48.737Z,1021.4
2016-11-30T05:05:03.030Z,1021.42
2016-11-30T05:06:16.924Z,1021.41
2016-11-30T05:07:31.024Z,1021.56
2016-11-30T05:08:44.910Z,1021.68
2016-11-30T05:09:58.995Z,1021.65
2016-11-30T05:11:13.307Z,1021.69
2016-11-30T05:12:27.257Z,1021.64
2016-11-30T05:13:41.747Z,1021.55
2016-11-30T05:14:55.811Z,1021.49
2016-11-30T05:16:09.951Z,1021.45
2016-11-30T05:17:38.700Z,1021.42
2016-11-30T05:18:55.534Z,1021.48
2016-11-30T05:20:10.936Z,1021.49
2016-11-30T05:21:26.758Z,1021.52
2016-11-30T05:22:41.945Z,1021.55
2016-11-30T05:23:55.912Z,1021.6
2016-11-30T05:25:10.573Z,1021.64
2016-11-30T05:26:25.061Z,1021.61
2016-11-30T05:27:40.012Z,1021.62
2016-11-30T05:28:54.265Z,1021.55
2016-11-30T05:30:08.341Z,1021.49
2016-11-30T05:32:53.337Z,1021.53
2016-11-30T05:34:07.805Z,1021.51
2016-11-30T05:35:22.339Z,1021.47
2016-11-30T05:36:37.346Z,1021.5
2016-11-30T05:37:51.239Z,1021.44
2016-11-30T05:39:05.445Z,1021.39
2016-11-30T05:40:19.967Z,1021.31
2016-11-30T05:41:34.081Z,1021.32
2016-11-30T05:42:48.405Z,1021.21
2016-11-30T05:44:02.495Z,1021.3
2016-11-30T05:45:16.677Z,1021.32
2016-11-30T05:46:31.501Z,1021.3
2016-11-30T05:47:45.987Z,1021.27
2016-11-30T05:49:00.602Z,1021.32
2016-11-30T05:50:14.824Z,1021.3
2016-11-30T05:51:29.463Z,1021.3
2016-11-30T05:52:44.229Z,1021.32
2016-11-30T05:53:58.286Z,1021.38
2016-11-30T05:55:13.090Z,1021.38
2016-11-30T05:56:27.091Z,1021.49
2016-11-30T05:57:41.022Z,1021.49
2016-11-30T05:58:56.511Z,1021.57
2016-11-30T06:00:10.514Z,1021.64
2016-11-30T06:01:27.551Z,1021.58
2016-11-30T06:02:41.538Z,1021.63
2016-11-30T06:03:56.341Z,1021.62
2016-11-30T06:05:10.376Z,1021.69
2016-11-30T06:06:24.822Z,1021.76
2016-11-30T06:07:39.443Z,1021.83
2016-11-30T06:08:53.573Z,1021.91
2016-11-30T06:10:07.920Z,1022
2016-11-30T06:11:24.266Z,1022.08
2016-11-30T06:12:39.705Z,1022.09
2016-11-30T06:13:54.413Z,1022.11
2016-11-30T06:15:09.001Z,1022.03
2016-11-30T06:16:23.376Z,1021.99
2016-11-30T06:17:37.953Z,1021.97
2016-11-30T06:18:52.387Z,1021.98
2016-11-30T06:20:06.977Z,1021.99
2016-11-30T06:21:21.200Z,1021.92
2016-11-30T06:22:50.198Z,1021.86
2016-11-30T06:24:04.523Z,1021.83
2016-11-30T06:25:19.344Z,1021.79
2016-11-30T06:26:33.481Z,1021.79
2016-11-30T06:27:47.483Z,1021.77
2016-11-30T06:29:01.934Z,1021.79
2016-11-30T06:30:16.118Z,1021.79
2016-11-30T06:31:30.944Z,1021.78
2016-11-30T06:32:45.399Z,1021.78
2016-11-30T06:33:59.967Z,1021.79
2016-11-30T06:35:14.534Z,1021.79
2016-11-30T06:39:26.052Z,1021.81
2016-11-30T06:40:41.380Z,1021.84
2016-11-30T06:41:55.353Z,1021.86
2016-11-30T06:43:09.294Z,1021.91
2016-11-30T06:44:23.517Z,1021.95
2016-11-30T06:45:37.642Z,1021.97
2016-11-30T06:46:51.574Z,1022.01
2016-11-30T06:48:06.520Z,1022.06
2016-11-30T06:49:30.124Z,1022.04
2016-11-30T06:50:44.281Z,1022.05
2016-11-30T06:52:12.923Z,1022.05
2016-11-30T06:53:41.811Z,1022.04
2016-11-30T06:54:55.861Z,1022.05
2016-11-30T06:56:09.968Z,1021.98
2016-11-30T06:57:24.001Z,1021.97
2016-11-30T06:58:37.946Z,1021.88
2016-11-30T06:59:52.057Z,1021.81
2016-11-30T07:01:06.401Z,1021.82
2016-11-30T07:02:20.674Z,1021.83
2016-11-30T07:03:34.480Z,1021.82
2016-11-30T07:04:48.491Z,1021.78
2016-11-30T07:06:02.908Z,1021.73
2016-11-30T07:07:16.759Z,1021.67
2016-11-30T07:08:31.764Z,1021.62
2016-11-30T07:09:45.848Z,1021.64
2016-11-30T07:10:59.599Z,1021.66
2016-11-30T07:12:13.806Z,1021.68
2016-11-30T07:13:27.596Z,1021.7
2016-11-30T07:14:41.615Z,1021.79
2016-11-30T07:15:55.748Z,1021.85
2016-11-30T07:17:09.473Z,1021.84
2016-11-30T07:18:23.608Z,1021.89
2016-11-30T07:19:37.453Z,1021.86
2016-11-30T07:20:53.600Z,1021.87
2016-11-30T07:22:07.837Z,1021.85
2016-11-30T07:23:22.432Z,1021.76
2016-11-30T07:24:36.512Z,1021.8
2016-11-30T07:25:50.421Z,1021.83
2016-11-30T07:27:19.539Z,1021.93
2016-11-30T07:28:33.614Z,1021.97
2016-11-30T07:29:47.987Z,1021.99
2016-11-30T07:31:02.041Z,1021.95
2016-11-30T07:32:16.381Z,1022.03
2016-11-30T07:33:30.290Z,1022.03
2016-11-30T07:34:44.357Z,1022.07
2016-11-30T07:35:58.722Z,1022.1
2016-11-30T07:37:12.531Z,1022.14
2016-11-30T07:38:26.604Z,1022.19
2016-11-30T07:39:40.688Z,1022.2
2016-11-30T07:40:54.667Z,1022.24
2016-11-30T07:42:09.135Z,1022.23
2016-11-30T07:43:23.443Z,1022.19
2016-11-30T07:44:37.265Z,1022.3
2016-11-30T07:45:51.138Z,1022.31
2016-11-30T07:47:05.357Z,1022.31
2016-11-30T07:48:19.636Z,1022.25
2016-11-30T07:49:33.375Z,1022.2
2016-11-30T07:50:47.761Z,1022.12
2016-11-30T07:52:02.351Z,1022.12
2016-11-30T07:53:16.263Z,1022.11
2016-11-30T07:54:31.378Z,1022.09
2016-11-30T07:55:46.090Z,1022.15
2016-11-30T07:57:00.208Z,1022.1
2016-11-30T07:58:14.504Z,1022.12
2016-11-30T07:59:28.648Z,1022.1
2016-11-30T08:00:42.753Z,1022.06
2016-11-30T08:01:56.917Z,1022.09
2016-11-30T08:03:11.099Z,1022.1
2016-11-30T08:04:25.421Z,1022.11
2016-11-30T08:05:39.439Z,1022.12
2016-11-30T08:06:53.674Z,1022.21
2016-11-30T08:08:07.539Z,1022.24
2016-11-30T08:09:21.269Z,1022.31
2016-11-30T08:10:34.980Z,1022.39
2016-11-30T08:11:48.778Z,1022.45
2016-11-30T08:13:03.146Z,1022.48
2016-11-30T08:14:16.817Z,1022.54
2016-11-30T08:15:30.510Z,1022.61
2016-11-30T08:16:44.294Z,1022.6
2016-11-30T08:17:58.290Z,1022.56
2016-11-30T08:19:12.538Z,1022.58
2016-11-30T08:20:27.013Z,1022.67
2016-11-30T08:21:40.775Z,1022.64
2016-11-30T08:22:54.477Z,1022.66
2016-11-30T08:24:08.831Z,1022.64
2016-11-30T08:25:22.816Z,1022.52
2016-11-30T08:26:37.670Z,1022.59
2016-11-30T08:27:51.976Z,1022.6
2016-11-30T08:29:05.968Z,1022.64
2016-11-30T08:30:19.944Z,1022.6
2016-11-30T08:31:33.976Z,1022.6
2016-11-30T08:32:48.165Z,1022.68
2016-11-30T08:34:02.412Z,1022.74
2016-11-30T08:35:16.384Z,1022.78
2016-11-30T08:36:30.416Z,1022.8
2016-11-30T08:37:46.967Z,1022.77
2016-11-30T08:39:00.893Z,1022.73
2016-11-30T08:40:14.961Z,1022.75
2016-11-30T08:41:29.355Z,1022.75
2016-11-30T08:42:43.228Z,1022.67
2016-11-30T08:43:57.205Z,1022.58
2016-11-30T08:45:11.110Z,1022.58
2016-11-30T08:46:24.974Z,1022.64
2016-11-30T08:47:38.975Z,1022.64
2016-11-30T08:48:53.230Z,1022.65
2016-11-30T08:50:07.049Z,1022.65
2016-11-30T08:51:20.944Z,1022.67
2016-11-30T08:52:34.725Z,1022.68
2016-11-30T08:53:48.581Z,1022.64
2016-11-30T08:55:02.413Z,1022.6
2016-11-30T08:56:17.065Z,1022.56
2016-11-30T08:57:32.541Z,1022.55
2016-11-30T08:58:46.531Z,1022.6
2016-11-30T09:00:00.585Z,1022.62
2016-11-30T09:01:14.524Z,1022.59
2016-11-30T09:02:28.886Z,1022.53
2016-11-30T09:03:44.419Z,1022.53
2016-11-30T09:04:58.872Z,1022.56
2016-11-30T09:06:12.789Z,1022.57
2016-11-30T09:07:26.742Z,1022.56
2016-11-30T09:08:41.131Z,1022.57
2016-11-30T09:09:55.437Z,1022.59
2016-11-30T09:11:09.505Z,1022.61
2016-11-30T09:12:24.592Z,1022.57
2016-11-30T09:13:53.254Z,1022.57
2016-11-30T09:15:07.622Z,1022.55
2016-11-30T09:16:21.496Z,1022.57
2016-11-30T09:17:35.751Z,1022.54
2016-11-30T09:18:50.034Z,1022.65
2016-11-30T09:20:04.150Z,1022.69
2016-11-30T09:21:19.159Z,1022.69
2016-11-30T09:22:33.883Z,1022.66
2016-11-30T09:23:51.362Z,1022.68
2016-11-30T09:25:20.874Z,1022.69
2016-11-30T09:26:36.942Z,1022.67
2016-11-30T09:27:51.274Z,1022.68
2016-11-30T09:29:05.562Z,1022.7
2016-11-30T09:30:19.550Z,1022.7
2016-11-30T09:31:34.031Z,1022.69
2016-11-30T09:32:48.498Z,1022.64
2016-11-30T09:34:02.472Z,1022.59
2016-11-30T09:35:16.610Z,1022.54
2016-11-30T09:36:30.666Z,1022.56
2016-11-30T09:37:44.666Z,1022.54
2016-11-30T09:38:58.974Z,1022.51
2016-11-30T09:40:14.225Z,1022.54
2016-11-30T09:41:39.885Z,1022.52
2016-11-30T09:43:02.852Z,1022.51
2016-11-30T09:44:40.819Z,1022.5
2016-11-30T09:46:05.929Z,1022.45
2016-11-30T09:47:30.902Z,1022.5
2016-11-30T09:49:09.069Z,1022.5
2016-11-30T09:50:33.403Z,1022.49
2016-11-30T09:51:54.962Z,1022.43
2016-11-30T09:53:19.662Z,1022.43
2016-11-30T09:54:33.905Z,1022.44
2016-11-30T09:55:48.702Z,1022.46
2016-11-30T09:57:05.949Z,1022.48
2016-11-30T09:58:20.756Z,1022.5
2016-11-30T09:59:34.476Z,1022.54
2016-11-30T10:00:48.931Z,1022.54
2016-11-30T10:02:03.747Z,1022.54
2016-11-30T10:03:17.583Z,1022.57
2016-11-30T10:04:31.301Z,1022.5
2016-11-30T10:05:45.351Z,1022.45
2016-11-30T10:06:59.422Z,1022.42
2016-11-30T10:08:13.707Z,1022.41
2016-11-30T10:09:27.821Z,1022.38
2016-11-30T10:10:41.665Z,1022.34
2016-11-30T10:11:55.488Z,1022.33
2016-11-30T10:13:09.728Z,1022.24
2016-11-30T10:14:24.047Z,1022.21
2016-11-30T10:15:38.377Z,1022.19
2016-11-30T10:17:06.962Z,1022.17
2016-11-30T10:18:21.412Z,1022.16
2016-11-30T10:19:35.713Z,1022.19
2016-11-30T10:20:49.651Z,1022.21
2016-11-30T10:22:03.461Z,1022.15
2016-11-30T10:23:17.404Z,1022.09
2016-11-30T10:24:31.314Z,1022.04
2016-11-30T10:25:45.794Z,1021.98
2016-11-30T10:26:59.666Z,1021.97
2016-11-30T10:28:13.630Z,1021.99
2016-11-30T10:29:27.314Z,1021.9
2016-11-30T10:30:41.286Z,1021.89
2016-11-30T10:31:55.504Z,1021.8
2016-11-30T10:33:09.260Z,1021.78
2016-11-30T10:34:23.356Z,1021.78
2016-11-30T10:35:37.479Z,1021.83
2016-11-30T10:36:51.181Z,1021.85
2016-11-30T10:38:05.439Z,1021.83
2016-11-30T10:39:19.559Z,1021.88
2016-11-30T10:40:33.618Z,1021.85
2016-11-30T10:41:47.749Z,1021.84
2016-11-30T10:43:01.494Z,1021.85
2016-11-30T10:44:16.035Z,1021.79
2016-11-30T10:45:29.993Z,1021.8
2016-11-30T10:46:43.998Z,1021.76
2016-11-30T10:47:58.370Z,1021.71
2016-11-30T10:49:12.053Z,1021.65
2016-11-30T10:50:26.482Z,1021.64
2016-11-30T10:51:40.463Z,1021.68
2016-11-30T10:52:54.232Z,1021.68
2016-11-30T10:54:08.341Z,1021.73
2016-11-30T10:55:22.246Z,1021.76
2016-11-30T10:56:36.953Z,1021.76
2016-11-30T10:57:50.660Z,1021.75
2016-11-30T10:59:04.393Z,1021.74
2016-11-30T11:00:18.291Z,1021.67
2016-11-30T11:01:32.783Z,1021.68
2016-11-30T11:02:47.051Z,1021.71
2016-11-30T11:04:00.942Z,1021.76
2016-11-30T11:05:15.040Z,1021.75
2016-11-30T11:06:29.320Z,1021.8
2016-11-30T11:07:43.297Z,1021.7
2016-11-30T11:08:57.242Z,1021.71
2016-11-30T11:10:11.467Z,1021.73
2016-11-30T11:11:25.398Z,1021.71
2016-11-30T11:12:39.350Z,1021.67
2016-11-30T11:13:56.059Z,1021.69
2016-11-30T11:15:11.269Z,1021.71
2016-11-30T11:16:25.664Z,1021.66
2016-11-30T11:17:39.578Z,1021.64
2016-11-30T11:18:53.433Z,1021.55
2016-11-30T11:20:08.376Z,1021.51
2016-11-30T11:21:23.127Z,1021.46
2016-11-30T11:22:52.392Z,1021.34
2016-11-30T11:24:06.569Z,1021.34
2016-11-30T11:25:21.132Z,1021.37
2016-11-30T11:26:34.925Z,1021.33
2016-11-30T11:27:48.686Z,1021.3
2016-11-30T11:29:02.643Z,1021.32
2016-11-30T11:30:16.923Z,1021.2
2016-11-30T11:31:31.309Z,1021.19
2016-11-30T11:32:45.334Z,1021.13
2016-11-30T11:33:59.802Z,1021.08
2016-11-30T11:35:28.411Z,1021.13
2016-11-30T11:36:42.112Z,1021.04
2016-11-30T11:37:56.713Z,1021.07
2016-11-30T11:39:11.024Z,1021.07
2016-11-30T11:40:25.578Z,1021.02
2016-11-30T11:41:39.771Z,1021.02
2016-11-30T11:42:53.906Z,1020.97
2016-11-30T11:44:08.667Z,1021.05
2016-11-30T11:45:24.133Z,1021.08
2016-11-30T11:46:38.555Z,1021.14
2016-11-30T11:47:52.957Z,1021.1
2016-11-30T11:49:07.486Z,1021.1
2016-11-30T11:50:22.064Z,1021.1
2016-11-30T11:51:37.085Z,1021.08
2016-11-30T11:52:52.358Z,1021.16
2016-11-30T11:54:07.370Z,1021.21
2016-11-30T11:55:25.058Z,1021.22
2016-11-30T11:56:56.062Z,1021.27
2016-11-30T11:58:12.292Z,1021.23
2016-11-30T11:59:27.937Z,1021.16
2016-11-30T12:00:44.153Z,1021.14
2016-11-30T12:01:59.343Z,1021.16
2016-11-30T12:03:14.933Z,1021.03
2016-11-30T12:04:30.406Z,1021.01
2016-11-30T12:05:46.741Z,1020.93
2016-11-30T12:07:01.629Z,1020.98
2016-11-30T12:08:15.797Z,1020.86
2016-11-30T12:09:30.372Z,1020.83
2016-11-30T12:10:48.919Z,1020.83
2016-11-30T12:12:04.437Z,1020.74
2016-11-30T12:13:33.874Z,1020.82
2016-11-30T12:14:49.749Z,1020.82
2016-11-30T12:16:06.883Z,1020.84
2016-11-30T12:17:21.858Z,1020.86
2016-11-30T12:18:36.297Z,1020.84
2016-11-30T12:19:51.147Z,1020.81
2016-11-30T12:21:05.942Z,1020.72
2016-11-30T12:22:22.301Z,1020.72
2016-11-30T12:23:37.460Z,1020.66
2016-11-30T12:24:51.820Z,1020.61
2016-11-30T12:26:06.578Z,1020.58
2016-11-30T12:27:20.573Z,1020.62
2016-11-30T12:28:36.360Z,1020.65
2016-11-30T12:29:50.404Z,1020.66
2016-11-30T12:31:04.807Z,1020.62
2016-11-30T12:32:21.633Z,1020.55
2016-11-30T12:33:36.138Z,1020.57
2016-11-30T12:34:50.265Z,1020.53
2016-11-30T12:36:07.858Z,1020.6
2016-11-30T12:37:22.001Z,1020.61
2016-11-30T12:38:36.952Z,1020.59
2016-11-30T12:39:51.569Z,1020.66
2016-11-30T12:41:05.811Z,1020.64
2016-11-30T12:42:19.768Z,1020.62
2016-11-30T12:43:33.881Z,1020.63
2016-11-30T12:44:48.307Z,1020.61
2016-11-30T12:46:02.940Z,1020.55
2016-11-30T12:47:17.055Z,1020.55
2016-11-30T12:48:31.520Z,1020.57
2016-11-30T12:49:46.031Z,1020.55
2016-11-30T12:50:59.718Z,1020.54
2016-11-30T12:52:28.389Z,1020.57
2016-11-30T12:53:43.673Z,1020.63
2016-11-30T12:54:58.634Z,1020.52
2016-11-30T12:56:12.779Z,1020.53
2016-11-30T12:58:56.657Z,1020.58
2016-11-30T13:00:10.778Z,1020.55
2016-11-30T13:01:25.456Z,1020.52
2016-11-30T13:02:39.582Z,1020.48
2016-11-30T13:03:53.836Z,1020.44
2016-11-30T13:05:08.051Z,1020.45
2016-11-30T13:06:22.194Z,1020.43
2016-11-30T13:07:36.532Z,1020.42
2016-11-30T13:08:50.865Z,1020.4
2016-11-30T13:10:04.731Z,1020.42
2016-11-30T13:11:18.766Z,1020.37
2016-11-30T13:12:32.598Z,1020.39
2016-11-30T13:13:46.665Z,1020.35
2016-11-30T13:15:00.912Z,1020.32
2016-11-30T13:16:15.080Z,1020.27
2016-11-30T13:17:29.385Z,1020.3
2016-11-30T13:18:43.611Z,1020.32
2016-11-30T13:19:57.571Z,1020.31
2016-11-30T13:21:11.296Z,1020.29
2016-11-30T13:22:25.256Z,1020.31
2016-11-30T13:23:39.181Z,1020.31
2016-11-30T13:24:53.294Z,1020.36
2016-11-30T13:26:07.617Z,1020.35
2016-11-30T13:27:21.428Z,1020.33
2016-11-30T13:28:35.647Z,1020.35
2016-11-30T13:29:50.416Z,1020.37
2016-11-30T13:31:04.373Z,1020.3
2016-11-30T13:32:18.783Z,1020.34
2016-11-30T13:33:32.662Z,1020.3
2016-11-30T13:34:46.907Z,1020.33
2016-11-30T13:36:16.103Z,1020.28
2016-11-30T13:37:30.069Z,1020.29
2016-11-30T13:38:43.827Z,1020.27
2016-11-30T13:39:58.258Z,1020.27
2016-11-30T13:41:12.020Z,1020.23
2016-11-30T13:42:26.265Z,1020.24
2016-11-30T13:43:40.077Z,1020.15
2016-11-30T13:44:53.823Z,1020.12
2016-11-30T13:46:08.188Z,1020.1
2016-11-30T13:47:22.435Z,1020.1
2016-11-30T13:48:36.507Z,1020.08
2016-11-30T13:49:52.593Z,1019.99
2016-11-30T13:51:06.657Z,1019.99
2016-11-30T13:52:20.578Z,1019.95
2016-11-30T13:53:34.346Z,1019.87
2016-11-30T13:54:48.613Z,1019.83
2016-11-30T13:56:02.664Z,1019.78
2016-11-30T13:57:16.912Z,1019.73
2016-11-30T13:58:30.708Z,1019.73
2016-11-30T13:59:44.819Z,1019.71
2016-11-30T14:00:59.158Z,1019.68
2016-11-30T14:02:13.146Z,1019.73
2016-11-30T14:03:27.801Z,1019.69
2016-11-30T14:04:56.576Z,1019.7
2016-11-30T14:06:10.556Z,1019.72
2016-11-30T14:07:24.535Z,1019.69
2016-11-30T14:08:38.226Z,1019.65
2016-11-30T14:09:52.356Z,1019.65
2016-11-30T14:11:06.566Z,1019.66
2016-11-30T14:12:20.836Z,1019.65
2016-11-30T14:13:34.772Z,1019.71
2016-11-30T14:14:48.593Z,1019.68
2016-11-30T14:16:03.525Z,1019.66
2016-11-30T14:17:17.798Z,1019.61
2016-11-30T14:18:31.955Z,1019.62
2016-11-30T14:19:46.654Z,1019.59
2016-11-30T14:21:00.353Z,1019.63
2016-11-30T14:22:14.514Z,1019.73
2016-11-30T14:23:28.309Z,1019.77
2016-11-30T14:24:42.712Z,1019.82
2016-11-30T14:25:57.609Z,1019.75
2016-11-30T14:27:11.417Z,1019.78
2016-11-30T14:28:27.060Z,1019.8
2016-11-30T14:29:41.051Z,1019.76
2016-11-30T14:30:55.253Z,1019.71
2016-11-30T14:32:09.521Z,1019.73
2016-11-30T14:33:23.377Z,1019.7
2016-11-30T14:34:37.797Z,1019.7
2016-11-30T14:35:52.446Z,1019.7
2016-11-30T14:37:06.701Z,1019.73
2016-11-30T14:38:21.427Z,1019.76
2016-11-30T14:39:35.350Z,1019.79
2016-11-30T14:40:49.383Z,1019.82
2016-11-30T14:42:03.273Z,1019.79
2016-11-30T14:43:17.574Z,1019.76
2016-11-30T14:44:32.110Z,1019.78
2016-11-30T14:45:46.139Z,1019.71
2016-11-30T14:47:00.257Z,1019.72
2016-11-30T14:48:13.999Z,1019.69
2016-11-30T14:49:27.972Z,1019.64
2016-11-30T14:50:42.755Z,1019.7
2016-11-30T14:51:56.813Z,1019.7
2016-11-30T14:53:10.915Z,1019.7
2016-11-30T14:54:24.792Z,1019.74
2016-11-30T14:55:38.777Z,1019.72
2016-11-30T14:56:52.720Z,1019.75
2016-11-30T15:01:04.298Z,1019.72
2016-11-30T15:02:18.643Z,1019.73
2016-11-30T15:03:32.503Z,1019.67
2016-11-30T15:04:46.940Z,1019.59
2016-11-30T15:06:00.903Z,1019.61
2016-11-30T15:07:14.943Z,1019.59
2016-11-30T15:08:31.360Z,1019.54
2016-11-30T15:09:45.415Z,1019.53
2016-11-30T15:10:59.129Z,1019.52
2016-11-30T15:12:13.209Z,1019.57
2016-11-30T15:13:27.480Z,1019.54
2016-11-30T15:14:41.588Z,1019.57
2016-11-30T15:15:55.628Z,1019.57
2016-11-30T15:17:09.873Z,1019.58
2016-11-30T15:20:07.772Z,1019.56
2016-11-30T15:21:21.581Z,1019.58
2016-11-30T15:22:36.049Z,1019.54
2016-11-30T15:23:50.007Z,1019.55
2016-11-30T15:25:03.777Z,1019.59
2016-11-30T15:26:18.197Z,1019.54
2016-11-30T15:27:33.692Z,1019.56
2016-11-30T15:28:48.652Z,1019.59
2016-11-30T15:30:02.682Z,1019.57